createdAt,value
2023-10-04T00:01:35.237Z,5.00
2023-10-04T00:03:58.005Z,4.72
2023-10-04T00:06:03.138Z,4.32
2023-10-04T00:08:19.915Z,4.90
2023-10-04T00:11:18.706Z,5.90
2023-10-04T00:13:32.731Z,4.82
2023-10-04T00:15:58.646Z,4.05
2023-10-04T00:18:33.335Z,4.50
2023-10-04T00:20:49.957Z,4.97
2023-10-04T00:22:57.940Z,4.47
2023-10-04T00:25:08.230Z,4.35
2023-10-04T00:27:20.233Z,5.47
2023-10-04T00:29:29.062Z,4.68
2023-10-04T00:31:38.362Z,4.32
2023-10-04T00:33:57.797Z,4.65
2023-10-04T00:36:08.009Z,5.00
2023-10-04T00:38:16.174Z,4.40
2023-10-04T00:40:30.774Z,4.72
2023-10-04T00:42:48.709Z,5.53
2023-10-04T00:44:56.921Z,5.35
2023-10-04T00:47:07.104Z,4.82
2023-10-04T00:49:19.030Z,4.95
2023-10-04T00:51:26.616Z,4.43
2023-10-04T00:53:43.535Z,4.78
2023-10-04T00:55:54.392Z,4.88
2023-10-04T00:58:07.811Z,4.30
2023-10-04T01:00:13.611Z,4.72
2023-10-04T01:02:22.096Z,4.35
2023-10-04T01:04:28.639Z,4.55
2023-10-04T01:06:46.113Z,4.35
2023-10-04T01:08:56.624Z,3.63
2023-10-04T01:11:03.538Z,3.45
2023-10-04T01:13:13.050Z,3.22
2023-10-04T01:15:31.829Z,4.18
2023-10-04T01:17:38.996Z,3.10
2023-10-04T01:19:45.882Z,3.80
2023-10-04T01:21:51.667Z,3.72
2023-10-04T01:24:07.639Z,3.40
2023-10-04T01:26:27.199Z,3.20
2023-10-04T01:28:41.096Z,4.18
2023-10-04T01:30:50.596Z,3.80
2023-10-04T01:33:01.480Z,3.50
2023-10-04T01:35:09.674Z,4.40
2023-10-04T01:37:15.242Z,3.70
2023-10-04T01:39:31.680Z,3.58
2023-10-04T01:41:40.956Z,3.15
2023-10-04T01:43:47.002Z,3.63
2023-10-04T01:45:54.580Z,4.03
2023-10-04T01:47:58.911Z,4.70
2023-10-04T01:50:06.672Z,3.40
2023-10-04T01:52:12.707Z,3.78
2023-10-04T01:54:18.748Z,4.30
2023-10-04T01:56:28.296Z,4.32
2023-10-04T01:58:35.339Z,4.43
2023-10-04T02:00:41.078Z,4.82
2023-10-04T02:02:53.310Z,3.58
2023-10-04T02:04:57.223Z,3.97
2023-10-04T02:07:02.926Z,4.05
2023-10-04T02:09:13.293Z,5.03
2023-10-04T02:11:23.378Z,3.80
2023-10-04T02:13:34.128Z,3.88
2023-10-04T02:15:40.635Z,3.42
2023-10-04T02:17:48.831Z,4.03
2023-10-04T02:22:02.003Z,4.07
2023-10-04T02:24:23.000Z,4.65
2023-10-04T02:26:37.911Z,4.10
2023-10-04T02:28:49.700Z,4.55
2023-10-04T02:31:00.665Z,4.72
2023-10-04T02:33:20.333Z,4.07
2023-10-04T02:35:28.723Z,4.85
2023-10-04T02:37:36.137Z,3.88
2023-10-04T02:39:45.813Z,4.40
2023-10-04T02:41:55.541Z,3.72
2023-10-04T02:44:04.482Z,4.38
2023-10-04T02:46:12.106Z,4.43
2023-10-04T02:48:31.809Z,5.25
2023-10-04T02:50:41.126Z,4.20
2023-10-04T02:55:08.810Z,4.43
2023-10-04T02:57:19.431Z,4.47
2023-10-04T02:59:28.085Z,4.35
2023-10-04T03:01:35.365Z,4.72
2023-10-04T03:03:43.924Z,4.25
2023-10-04T03:05:50.433Z,4.38
2023-10-04T03:08:10.689Z,4.45
2023-10-04T03:10:27.883Z,4.45
2023-10-04T03:12:37.018Z,4.45
2023-10-04T03:14:45.819Z,4.60
2023-10-04T03:16:52.066Z,3.78
2023-10-04T03:18:57.914Z,5.47
2023-10-04T03:21:11.811Z,4.85
2023-10-04T03:23:23.164Z,3.73
2023-10-04T03:25:28.968Z,5.70
2023-10-04T03:27:36.769Z,4.88
2023-10-04T03:30:01.903Z,5.43
2023-10-04T03:32:08.498Z,4.43
2023-10-04T03:34:17.379Z,5.38
2023-10-04T03:36:22.957Z,5.82
2023-10-04T03:38:40.920Z,5.68
2023-10-04T03:40:46.549Z,4.95
2023-10-04T03:42:56.621Z,4.90
2023-10-04T03:45:05.971Z,4.95
2023-10-04T03:47:12.781Z,3.08
2023-10-04T03:49:31.381Z,5.28
2023-10-04T03:51:37.691Z,3.42
2023-10-04T03:53:48.626Z,4.35
2023-10-04T03:58:19.778Z,4.30
2023-10-04T04:00:34.216Z,4.47
2023-10-04T04:02:41.564Z,5.10
2023-10-04T04:04:49.909Z,5.45
2023-10-04T04:07:00.796Z,4.80
2023-10-04T04:09:14.761Z,4.68
2023-10-04T04:11:21.551Z,5.20
2023-10-04T04:13:28.503Z,5.03
2023-10-04T04:15:38.078Z,5.00
2023-10-04T04:17:46.947Z,4.90
2023-10-04T04:19:56.403Z,5.68
2023-10-04T04:22:03.658Z,5.15
2023-10-04T04:24:11.214Z,5.13
2023-10-04T04:26:18.696Z,4.95
2023-10-04T04:28:31.766Z,5.95
2023-10-04T04:30:41.144Z,6.35
2023-10-04T04:32:45.641Z,5.65
2023-10-04T04:34:53.724Z,6.38
2023-10-04T04:37:00.365Z,6.20
2023-10-04T04:39:11.073Z,6.30
2023-10-04T04:43:47.497Z,6.63
2023-10-04T04:45:57.646Z,7.20
2023-10-04T04:48:14.402Z,6.60
2023-10-04T04:50:24.416Z,6.60
2023-10-04T04:52:31.787Z,7.25
2023-10-04T04:58:53.503Z,6.95
2023-10-04T05:01:04.431Z,7.13
2023-10-04T05:03:14.693Z,7.30
2023-10-04T05:05:22.976Z,6.70
2023-10-04T05:07:29.840Z,6.97
2023-10-04T05:10:00.677Z,6.53
2023-10-04T05:12:07.289Z,6.78
2023-10-04T05:14:13.021Z,6.55
2023-10-04T05:16:22.931Z,6.72
2023-10-04T05:18:28.759Z,7.15
2023-10-04T05:20:36.178Z,7.53
2023-10-04T05:22:43.964Z,6.28
2023-10-04T05:25:08.629Z,6.70
2023-10-04T05:27:14.140Z,6.80
2023-10-04T05:29:19.616Z,7.10
2023-10-04T05:31:27.906Z,7.25
2023-10-04T05:33:36.534Z,7.43
2023-10-04T05:35:42.126Z,7.63
2023-10-04T05:37:46.149Z,6.78
2023-10-04T05:39:55.404Z,6.82
2023-10-04T05:42:01.070Z,6.32
2023-10-04T05:44:06.884Z,6.90
2023-10-04T05:46:14.429Z,6.93
2023-10-04T05:48:33.062Z,5.60
2023-10-04T05:50:39.823Z,5.57
2023-10-04T05:52:45.310Z,6.38
2023-10-04T05:54:51.419Z,5.30
2023-10-04T05:56:58.776Z,5.68
2023-10-04T06:01:36.992Z,5.68
2023-10-04T06:03:46.020Z,6.00
2023-10-04T06:05:53.446Z,5.38
2023-10-04T06:10:03.180Z,5.60
2023-10-04T06:12:27.026Z,5.90
2023-10-04T06:14:32.965Z,5.75
2023-10-04T06:16:40.405Z,6.43
2023-10-04T06:18:49.716Z,5.80
2023-10-04T06:20:55.616Z,5.47
2023-10-04T06:23:06.955Z,6.00
2023-10-04T06:25:12.668Z,5.40
2023-10-04T06:27:19.227Z,4.90
2023-10-04T06:29:53.151Z,5.97
2023-10-04T06:32:04.794Z,5.25
2023-10-04T06:34:13.040Z,5.47
2023-10-04T06:36:19.195Z,5.35
2023-10-04T06:38:54.999Z,5.22
2023-10-04T06:41:02.820Z,5.07
2023-10-04T06:45:17.869Z,5.18
2023-10-04T06:47:22.241Z,4.90
2023-10-04T06:49:37.964Z,4.78
2023-10-04T06:51:46.667Z,4.82
2023-10-04T06:53:52.742Z,4.90
2023-10-04T06:55:58.502Z,5.30
2023-10-04T06:58:23.973Z,5.30
2023-10-04T07:00:32.116Z,4.60
2023-10-04T07:02:35.981Z,5.30
2023-10-04T07:04:44.713Z,4.28
2023-10-04T07:06:51.128Z,4.43
2023-10-04T07:09:19.910Z,4.25
2023-10-04T07:11:26.512Z,3.88
2023-10-04T07:13:37.987Z,4.43
2023-10-04T07:15:46.194Z,4.40
2023-10-04T07:17:49.943Z,4.28
2023-10-04T07:19:59.567Z,3.58
2023-10-04T07:22:05.340Z,3.83
2023-10-04T07:24:11.817Z,4.00
2023-10-04T07:26:26.377Z,3.75
2023-10-04T07:28:38.622Z,3.78
2023-10-04T07:30:46.168Z,3.88
2023-10-04T07:32:53.228Z,4.53
2023-10-04T07:35:01.996Z,4.50
2023-10-04T07:37:10.254Z,4.65
2023-10-04T07:39:23.244Z,4.05
2023-10-04T07:41:31.768Z,4.03
2023-10-04T07:43:37.458Z,3.70
2023-10-04T07:45:43.349Z,3.70
2023-10-04T07:47:48.629Z,3.47
2023-10-04T07:49:56.661Z,3.13
2023-10-04T07:54:21.535Z,3.83
2023-10-04T07:56:27.114Z,3.30
2023-10-04T07:58:41.052Z,3.58
2023-10-04T08:00:46.547Z,3.53
2023-10-04T08:02:54.831Z,3.00
2023-10-04T08:05:02.487Z,3.72
2023-10-04T08:07:13.767Z,3.50
2023-10-04T08:09:28.692Z,2.75
2023-10-04T08:11:33.326Z,2.85
2023-10-04T08:13:41.066Z,2.92
2023-10-04T08:15:47.934Z,2.80
2023-10-04T08:17:54.203Z,2.83
2023-10-04T08:20:00.383Z,2.63
2023-10-04T08:22:17.169Z,3.10
2023-10-04T08:24:24.314Z,3.33
2023-10-04T08:26:30.065Z,3.10
2023-10-04T08:28:38.111Z,2.90
2023-10-04T08:32:52.127Z,2.95
2023-10-04T08:34:59.226Z,3.05
2023-10-04T08:37:26.646Z,2.88
2023-10-04T08:39:34.934Z,3.28
2023-10-04T08:41:41.735Z,2.83
2023-10-04T08:43:48.582Z,2.65
2023-10-04T08:45:54.801Z,2.83
2023-10-04T08:48:11.280Z,3.20
2023-10-04T08:50:19.089Z,3.00
2023-10-04T08:52:39.871Z,3.33
2023-10-04T08:54:52.229Z,3.00
2023-10-04T08:57:05.888Z,2.33
2023-10-04T08:59:09.417Z,2.85
2023-10-04T09:01:17.444Z,3.03
2023-10-04T09:05:31.871Z,1.73
2023-10-04T09:07:40.806Z,3.50
2023-10-04T09:10:00.486Z,3.05
2023-10-04T09:12:08.119Z,2.28
2023-10-04T09:14:15.318Z,2.78
2023-10-04T09:16:28.388Z,3.10
2023-10-04T09:18:34.452Z,2.92
2023-10-04T09:20:40.221Z,2.83
2023-10-04T09:22:54.106Z,2.45
2023-10-04T09:25:03.259Z,2.90
2023-10-04T09:27:09.022Z,2.85
2023-10-04T09:29:37.114Z,2.80
2023-10-04T09:31:57.053Z,2.88
2023-10-04T09:34:19.644Z,3.00
2023-10-04T09:36:42.336Z,2.60
2023-10-04T09:39:13.831Z,2.47
2023-10-04T09:41:21.713Z,2.03
2023-10-04T09:43:45.858Z,2.63
2023-10-04T09:46:05.102Z,2.40
2023-10-04T09:48:20.060Z,2.22
2023-10-04T09:50:26.603Z,2.60
2023-10-04T09:52:32.482Z,3.10
2023-10-04T09:54:41.210Z,3.05
2023-10-04T09:56:46.504Z,2.85
2023-10-04T09:58:56.191Z,2.78
2023-10-04T10:01:09.544Z,2.35
2023-10-04T10:03:16.230Z,2.10
2023-10-04T10:05:30.263Z,3.03
2023-10-04T10:07:40.324Z,2.83
2023-10-04T10:10:03.040Z,3.17
2023-10-04T10:12:19.627Z,2.20
2023-10-04T10:14:25.895Z,2.30
2023-10-04T10:16:31.644Z,2.20
2023-10-04T10:18:37.307Z,2.45
2023-10-04T10:20:44.050Z,2.20
2023-10-04T10:27:37.183Z,2.55
2023-10-04T10:29:45.819Z,2.80
2023-10-04T10:31:58.116Z,2.70
2023-10-04T10:34:04.940Z,2.35
2023-10-04T10:36:24.313Z,2.20
2023-10-04T10:38:50.739Z,2.53
2023-10-04T10:41:01.445Z,2.00
2023-10-04T10:43:15.663Z,2.28
2023-10-04T10:45:34.280Z,2.78
2023-10-04T10:47:56.898Z,2.20
2023-10-04T10:50:14.528Z,2.25
2023-10-04T10:52:26.221Z,2.22
2023-10-04T10:54:33.692Z,2.40
2023-10-04T10:56:41.693Z,2.05
2023-10-04T10:58:53.607Z,2.00
2023-10-04T11:00:59.679Z,1.85
2023-10-04T11:03:10.807Z,2.45
2023-10-04T11:05:18.319Z,1.80
2023-10-04T11:07:23.917Z,2.55
2023-10-04T11:09:44.799Z,2.28
2023-10-04T11:11:55.616Z,2.92
2023-10-04T11:14:02.568Z,2.30
2023-10-04T11:16:11.681Z,2.20
2023-10-04T11:18:21.512Z,2.22
2023-10-04T11:20:29.576Z,2.60
2023-10-04T11:22:35.498Z,2.15
2023-10-04T11:24:44.377Z,2.25
2023-10-04T11:26:50.105Z,2.30
2023-10-04T11:28:58.897Z,2.10
2023-10-04T11:31:05.455Z,2.67
2023-10-04T11:33:11.354Z,2.40
2023-10-04T11:35:20.406Z,2.28
2023-10-04T11:37:31.155Z,2.72
2023-10-04T11:39:45.760Z,2.15
2023-10-04T11:41:52.477Z,2.08
2023-10-04T11:44:04.553Z,1.65
2023-10-04T11:46:10.961Z,2.63
2023-10-04T11:48:26.719Z,2.13
2023-10-04T11:50:53.936Z,2.60
2023-10-04T11:53:01.130Z,2.13
2023-10-04T11:55:08.472Z,2.28
2023-10-04T11:57:15.839Z,2.20
2023-10-04T11:59:41.062Z,1.65
2023-10-04T12:01:49.345Z,2.33
2023-10-04T12:03:57.763Z,1.50
2023-10-04T12:06:04.200Z,2.35
2023-10-04T12:08:15.059Z,2.25
2023-10-04T12:10:22.112Z,1.70
2023-10-04T12:12:35.528Z,3.05
2023-10-04T12:14:44.090Z,2.35
2023-10-04T12:16:47.333Z,2.28
2023-10-04T12:18:52.987Z,2.45
2023-10-04T12:20:58.893Z,2.15
2023-10-04T12:23:04.380Z,2.85
2023-10-04T12:25:16.323Z,2.20
2023-10-04T12:27:23.986Z,2.15
2023-10-04T12:31:42.677Z,2.58
2023-10-04T12:33:48.802Z,2.15
2023-10-04T12:35:55.660Z,1.95
2023-10-04T12:38:16.514Z,2.33
2023-10-04T12:40:25.152Z,2.50
2023-10-04T12:42:30.921Z,2.08
2023-10-04T12:44:38.948Z,2.20
2023-10-04T12:46:49.089Z,1.95
2023-10-04T12:48:54.591Z,1.92
2023-10-04T12:51:00.303Z,2.30
2023-10-04T12:53:17.506Z,2.38
2023-10-04T12:55:26.627Z,2.00
2023-10-04T12:57:33.414Z,2.30
2023-10-04T12:59:47.160Z,1.63
2023-10-04T13:01:57.637Z,1.90
2023-10-04T13:04:04.117Z,2.03
2023-10-04T13:06:15.676Z,2.10
2023-10-04T13:08:31.520Z,2.10
2023-10-04T13:10:38.352Z,2.03
2023-10-04T13:12:44.556Z,2.40
2023-10-04T13:14:50.058Z,2.30
2023-10-04T13:16:58.324Z,2.05
2023-10-04T13:19:11.857Z,2.22
2023-10-04T13:21:17.631Z,2.47
2023-10-04T13:23:23.060Z,2.00
2023-10-04T13:25:28.541Z,2.20
2023-10-04T13:27:36.937Z,2.47
2023-10-04T13:29:42.541Z,1.95
2023-10-04T13:32:00.372Z,2.08
2023-10-04T13:34:10.666Z,2.75
2023-10-04T13:36:16.080Z,1.83
2023-10-04T13:38:48.476Z,2.00
2023-10-04T13:40:54.185Z,2.00
2023-10-04T13:42:58.758Z,1.95
2023-10-04T13:45:04.573Z,1.70
2023-10-04T13:47:10.518Z,2.03
2023-10-04T13:49:30.108Z,2.22
2023-10-04T13:51:35.819Z,2.75
2023-10-04T13:53:41.814Z,2.10
2023-10-04T13:55:48.552Z,2.00
2023-10-04T13:57:56.673Z,2.33
2023-10-04T14:00:02.476Z,2.70
2023-10-04T14:02:20.797Z,2.00
2023-10-04T14:04:29.482Z,2.30
2023-10-04T14:06:34.921Z,1.92
2023-10-04T14:08:47.324Z,2.55
2023-10-04T14:10:53.164Z,1.73
2023-10-04T14:13:05.792Z,1.92
2023-10-04T14:15:15.270Z,2.40
2023-10-04T14:17:22.772Z,2.35
2023-10-04T14:19:34.811Z,2.50
2023-10-04T14:21:42.074Z,2.55
2023-10-04T14:23:47.967Z,2.40
2023-10-04T14:25:56.216Z,2.70
2023-10-04T14:28:18.750Z,2.00
2023-10-04T14:30:26.890Z,2.40
2023-10-04T14:32:32.455Z,2.00
2023-10-04T14:34:41.529Z,2.47
2023-10-04T14:36:47.090Z,2.30
2023-10-04T14:38:54.744Z,2.53
2023-10-04T14:41:02.375Z,2.53
2023-10-04T14:43:18.584Z,2.55
2023-10-04T14:45:21.732Z,2.38
2023-10-04T14:47:27.202Z,2.40
2023-10-04T14:49:49.573Z,2.58
2023-10-04T14:51:55.786Z,2.65
2023-10-04T14:54:02.573Z,2.40
2023-10-04T14:56:08.249Z,2.40
2023-10-04T14:58:21.660Z,2.38
2023-10-04T15:00:27.230Z,3.10
2023-10-04T15:02:33.196Z,2.55
2023-10-04T15:04:40.255Z,3.00
2023-10-04T15:06:48.449Z,2.53
2023-10-04T15:08:54.539Z,2.55
2023-10-04T15:11:10.005Z,2.58
2023-10-04T15:13:17.001Z,2.53
2023-10-04T15:15:28.948Z,3.03
2023-10-04T15:17:31.912Z,2.85
2023-10-04T15:19:51.650Z,3.33
2023-10-04T15:21:59.712Z,3.03
2023-10-04T15:24:12.864Z,2.80
2023-10-04T15:26:18.720Z,3.17
2023-10-04T15:28:32.272Z,3.40
2023-10-04T15:30:38.953Z,3.05
2023-10-04T15:32:44.739Z,3.03
2023-10-04T15:34:51.277Z,2.75
2023-10-04T15:36:59.829Z,3.47
2023-10-04T15:39:22.568Z,3.05
2023-10-04T15:41:28.445Z,3.38
2023-10-04T15:43:34.345Z,3.05
2023-10-04T15:45:41.982Z,3.40
2023-10-04T15:48:11.690Z,2.90
2023-10-04T15:50:19.195Z,3.35
2023-10-04T15:52:32.603Z,3.22
2023-10-04T15:54:43.202Z,3.70
2023-10-04T15:56:55.987Z,12.38
2023-10-04T15:59:03.829Z,4.35
2023-10-04T16:01:16.297Z,8.27
2023-10-04T16:03:28.718Z,8.73
2023-10-04T16:05:40.159Z,6.78
2023-10-04T16:07:49.158Z,4.25
2023-10-04T16:09:55.173Z,3.67
2023-10-04T16:12:00.656Z,3.03
2023-10-04T16:14:07.767Z,3.90
2023-10-04T16:16:13.824Z,3.58
2023-10-04T16:18:41.738Z,3.30
2023-10-04T16:20:50.369Z,4.00
2023-10-04T16:22:59.171Z,3.63
2023-10-04T16:25:05.614Z,3.13
2023-10-04T16:27:11.604Z,5.15
2023-10-04T16:29:40.727Z,3.13
2023-10-04T16:31:48.437Z,3.55
2023-10-04T16:33:54.005Z,3.42
2023-10-04T16:36:00.080Z,3.10
2023-10-04T16:38:21.852Z,2.92
2023-10-04T16:40:28.035Z,5.30
2023-10-04T16:42:30.870Z,4.63
2023-10-04T16:44:36.334Z,4.10
2023-10-04T16:46:41.828Z,3.83
2023-10-04T16:48:56.773Z,3.03
2023-10-04T16:51:02.793Z,3.58
2023-10-04T16:53:10.956Z,3.10
2023-10-04T16:55:20.158Z,3.40
2023-10-04T16:57:26.359Z,3.42
2023-10-04T16:59:38.411Z,3.60
2023-10-04T17:01:45.149Z,3.90
2023-10-04T17:03:51.124Z,3.72
2023-10-04T17:05:56.812Z,4.00
2023-10-04T17:08:08.489Z,3.60
2023-10-04T17:10:17.969Z,3.78
2023-10-04T17:12:24.377Z,4.75
2023-10-04T17:14:30.157Z,3.97
2023-10-04T17:16:46.218Z,3.50
2023-10-04T17:18:52.951Z,3.58
2023-10-04T17:21:00.036Z,3.95
2023-10-04T17:25:15.014Z,4.10
2023-10-04T17:27:23.044Z,4.40
2023-10-04T17:29:33.108Z,3.22
2023-10-04T17:31:38.536Z,3.40
2023-10-04T17:33:44.065Z,4.45
2023-10-04T17:35:51.689Z,3.53
2023-10-04T17:38:06.592Z,3.50
2023-10-04T17:40:15.283Z,3.78
2023-10-04T17:42:24.762Z,3.83
2023-10-04T17:44:30.774Z,3.95
2023-10-04T17:46:36.997Z,4.10
2023-10-04T17:48:43.138Z,4.53
2023-10-04T17:50:51.539Z,4.25
2023-10-04T17:52:58.012Z,4.25
2023-10-04T17:55:21.922Z,4.07
2023-10-04T17:57:29.961Z,3.83
2023-10-04T17:59:42.317Z,4.20
2023-10-04T18:01:48.828Z,4.18
2023-10-04T18:03:54.398Z,4.32
2023-10-04T18:06:00.855Z,4.07
2023-10-04T18:08:15.825Z,4.47
2023-10-04T18:10:21.413Z,4.38
2023-10-04T18:12:31.259Z,4.53
2023-10-04T18:14:36.681Z,4.53
2023-10-04T18:16:43.538Z,4.10
2023-10-04T18:18:49.856Z,4.97
2023-10-04T18:20:55.847Z,4.88
2023-10-04T18:23:24.774Z,3.92
2023-10-04T18:25:30.393Z,4.47
2023-10-04T18:27:40.291Z,4.18
2023-10-04T18:29:45.854Z,4.07
2023-10-04T18:31:52.734Z,4.43
2023-10-04T18:33:58.966Z,4.72
2023-10-04T18:36:06.836Z,3.88
2023-10-04T18:38:29.369Z,3.80
2023-10-04T18:40:34.936Z,3.88
2023-10-04T18:42:45.652Z,4.47
2023-10-04T18:44:51.726Z,4.90
2023-10-04T18:46:57.940Z,4.30
2023-10-04T18:49:17.609Z,4.65
2023-10-04T18:51:23.780Z,4.18
2023-10-04T18:53:29.170Z,5.15
2023-10-04T18:55:42.264Z,4.15
2023-10-04T18:57:51.465Z,5.13
2023-10-04T18:59:57.070Z,4.45
2023-10-04T19:02:02.547Z,4.40
2023-10-04T19:04:17.594Z,4.70
2023-10-04T19:06:23.052Z,4.80
2023-10-04T19:08:42.050Z,5.13
2023-10-04T19:10:48.342Z,5.30
2023-10-04T19:12:57.661Z,4.07
2023-10-04T19:15:04.992Z,4.45
2023-10-04T19:17:18.161Z,4.38
2023-10-04T19:19:33.011Z,4.47
2023-10-04T19:21:38.878Z,4.40
2023-10-04T19:23:45.849Z,5.10
2023-10-04T19:25:51.368Z,5.07
2023-10-04T19:28:16.418Z,4.95
2023-10-04T19:30:24.313Z,5.10
2023-10-04T19:34:35.422Z,4.13
2023-10-04T19:36:40.942Z,5.30
2023-10-04T19:38:47.267Z,4.55
2023-10-04T19:41:06.637Z,4.63
2023-10-04T19:43:16.597Z,5.15
2023-10-04T19:45:22.321Z,4.82
2023-10-04T19:47:27.732Z,5.60
2023-10-04T19:49:43.889Z,5.72
2023-10-04T19:51:49.438Z,5.05
2023-10-04T19:53:56.620Z,5.43
2023-10-04T19:56:02.062Z,6.10
2023-10-04T19:58:15.370Z,5.50
2023-10-04T20:00:26.619Z,6.05
2023-10-04T20:02:32.153Z,5.93
2023-10-04T20:04:37.817Z,6.63
2023-10-04T20:06:46.045Z,6.97
2023-10-04T20:08:51.623Z,5.72
2023-10-04T20:10:55.404Z,5.78
2023-10-04T20:13:11.169Z,5.72
2023-10-04T20:15:18.078Z,5.60
2023-10-04T20:17:26.109Z,5.28
2023-10-04T20:19:32.194Z,6.00
2023-10-04T20:21:37.823Z,6.10
2023-10-04T20:23:44.738Z,5.80
2023-10-04T20:25:52.362Z,5.53
2023-10-04T20:28:03.705Z,6.05
2023-10-04T20:30:11.470Z,5.32
2023-10-04T20:32:16.860Z,5.28
2023-10-04T20:34:26.035Z,4.93
2023-10-04T20:36:32.220Z,5.90
2023-10-04T20:38:38.194Z,5.10
2023-10-04T20:40:43.840Z,6.35
2023-10-04T20:43:03.929Z,5.25
2023-10-04T20:45:13.573Z,5.60
2023-10-04T20:47:18.981Z,4.97
2023-10-04T20:49:36.911Z,5.70
2023-10-04T20:51:42.418Z,5.18
2023-10-04T20:53:47.832Z,5.70
2023-10-04T20:55:53.247Z,5.60
2023-10-04T20:58:07.533Z,5.72
2023-10-04T21:00:16.172Z,5.75
2023-10-04T21:02:24.189Z,6.05
2023-10-04T21:06:37.718Z,5.35
2023-10-04T21:08:43.161Z,6.25
2023-10-04T21:10:49.573Z,5.95
2023-10-04T21:12:58.778Z,6.40
2023-10-04T21:15:04.859Z,6.15
2023-10-04T21:17:11.002Z,6.53
2023-10-04T21:19:31.428Z,6.88
2023-10-04T21:21:40.350Z,7.53
2023-10-04T21:23:46.049Z,7.00
2023-10-04T21:25:52.216Z,5.75
2023-10-04T21:28:05.131Z,5.93
2023-10-04T21:30:13.111Z,6.63
2023-10-04T21:32:24.704Z,5.82
2023-10-04T21:34:30.198Z,5.63
2023-10-04T21:36:39.046Z,5.68
2023-10-04T21:38:50.356Z,6.32
2023-10-04T21:40:58.372Z,6.20
2023-10-04T21:43:03.852Z,6.10
2023-10-04T21:45:14.943Z,7.10
2023-10-04T21:47:28.563Z,5.95
2023-10-04T21:49:39.125Z,5.82
2023-10-04T21:51:50.254Z,5.68
2023-10-04T21:53:56.861Z,6.38
2023-10-04T21:56:03.494Z,6.90
2023-10-04T21:58:15.366Z,6.30
2023-10-04T22:00:30.525Z,6.30
2023-10-04T22:02:37.788Z,6.20
2023-10-04T22:04:43.460Z,6.25
2023-10-04T22:06:54.802Z,5.57
2023-10-04T22:09:07.996Z,6.03
2023-10-04T22:11:15.178Z,6.13
2023-10-04T22:13:21.397Z,6.68
2023-10-04T22:15:27.164Z,6.15
2023-10-04T22:17:35.359Z,6.30
2023-10-04T22:19:43.123Z,6.20
2023-10-04T22:21:52.390Z,6.18
2023-10-04T22:23:58.063Z,7.00
2023-10-04T22:26:04.917Z,6.57
2023-10-04T22:28:16.482Z,6.32
2023-10-04T22:30:23.761Z,6.82
2023-10-04T22:34:37.631Z,7.18
2023-10-04T22:36:43.771Z,6.82
2023-10-04T22:38:53.221Z,6.57
2023-10-04T22:41:00.110Z,6.20
2023-10-04T22:43:13.144Z,6.05
2023-10-04T22:45:21.305Z,6.70
2023-10-04T22:47:27.837Z,5.85
2023-10-04T22:49:45.036Z,6.32
2023-10-04T22:54:04.438Z,5.70
2023-10-04T22:56:08.781Z,5.38
2023-10-04T22:58:18.921Z,5.88
2023-10-04T23:00:26.210Z,6.22
2023-10-04T23:04:39.658Z,6.20
2023-10-04T23:06:46.597Z,6.00
2023-10-04T23:08:53.124Z,6.68
2023-10-04T23:11:02.702Z,6.55
2023-10-04T23:13:24.026Z,6.38
2023-10-04T23:15:31.997Z,6.28
2023-10-04T23:17:40.093Z,6.43
2023-10-04T23:19:47.548Z,6.65
2023-10-04T23:21:55.119Z,6.43
2023-10-04T23:24:05.634Z,6.32
2023-10-04T23:26:17.381Z,6.45
2023-10-04T23:28:41.512Z,6.72
2023-10-04T23:30:49.354Z,6.80
2023-10-04T23:35:10.333Z,6.70
2023-10-04T23:37:16.826Z,5.95
2023-10-04T23:39:35.802Z,6.70
2023-10-04T23:41:44.105Z,7.00
2023-10-04T23:43:47.286Z,6.20
2023-10-04T23:45:58.576Z,6.68
2023-10-04T23:48:23.044Z,6.55
2023-10-04T23:50:30.113Z,6.32
2023-10-04T23:52:35.608Z,6.43
2023-10-04T23:54:42.071Z,7.38
2023-10-04T23:57:02.161Z,6.95
2023-10-04T23:59:08.838Z,6.45
